createdAt,value
2019-02-11T00:00:04.583Z,5.10
2019-02-11T00:01:04.716Z,5.10
2019-02-11T00:02:04.233Z,5.10
2019-02-11T00:03:04.501Z,5.00
2019-02-11T00:04:04.625Z,5.00
2019-02-11T00:05:04.902Z,5.00
2019-02-11T00:06:04.974Z,5.00
2019-02-11T00:07:04.590Z,5.00
2019-02-11T00:08:04.560Z,5.00
2019-02-11T00:09:04.868Z,5.00
2019-02-11T00:10:04.702Z,5.00
2019-02-11T00:11:04.307Z,5.00
2019-02-11T00:12:05.080Z,5.00
2019-02-11T00:13:10.309Z,5.00
2019-02-11T00:14:04.472Z,5.00
2019-02-11T00:15:04.720Z,5.00
2019-02-11T00:16:04.805Z,5.00
2019-02-11T00:17:04.434Z,5.00
2019-02-11T00:18:05.015Z,5.00
2019-02-11T00:19:04.343Z,5.00
2019-02-11T00:20:04.609Z,5.00
2019-02-11T00:21:04.768Z,5.00
2019-02-11T00:22:05.143Z,5.00
2019-02-11T00:23:04.609Z,4.90
2019-02-11T00:24:04.582Z,4.90
2019-02-11T00:25:04.843Z,4.90
2019-02-11T00:26:04.148Z,4.90
2019-02-11T00:27:04.405Z,4.90
2019-02-11T00:28:04.283Z,4.90
2019-02-11T00:29:10.033Z,4.90
2019-02-11T00:30:04.510Z,4.90
2019-02-11T00:31:04.555Z,4.90
2019-02-11T00:32:04.695Z,4.90
2019-02-11T00:33:04.768Z,4.90
2019-02-11T00:34:04.768Z,4.90
2019-02-11T00:35:05.083Z,4.90
2019-02-11T00:36:05.115Z,4.90
2019-02-11T00:37:04.170Z,4.90
2019-02-11T00:38:04.455Z,4.90
2019-02-11T00:39:04.731Z,4.90
2019-02-11T00:40:05.019Z,4.90
2019-02-11T00:41:05.212Z,4.80
2019-02-11T00:42:04.284Z,4.80
2019-02-11T00:43:04.963Z,4.80
2019-02-11T00:44:04.151Z,4.80
2019-02-11T00:45:04.680Z,4.80
2019-02-11T00:46:04.871Z,4.80
2019-02-11T00:47:05.190Z,4.80
2019-02-11T00:48:04.283Z,4.80
2019-02-11T00:49:04.375Z,4.80
2019-02-11T00:50:04.688Z,4.70
2019-02-11T00:51:04.872Z,4.70
2019-02-11T00:52:04.339Z,4.70
2019-02-11T00:53:04.869Z,4.70
2019-02-11T00:54:04.937Z,4.70
2019-02-11T00:55:05.055Z,4.70
2019-02-11T00:56:05.080Z,4.70
2019-02-11T00:57:04.730Z,4.70
2019-02-11T00:58:04.996Z,4.70
2019-02-11T00:59:05.175Z,4.70
2019-02-11T01:00:04.522Z,4.70
2019-02-11T01:01:04.563Z,4.60
2019-02-11T01:02:05.141Z,4.60
2019-02-11T01:03:04.352Z,4.60
2019-02-11T01:04:04.285Z,4.60
2019-02-11T01:05:04.630Z,4.60
2019-02-11T01:06:04.588Z,4.60
2019-02-11T01:07:04.868Z,4.60
2019-02-11T01:08:04.389Z,4.60
2019-02-11T01:09:04.498Z,4.60
2019-02-11T01:10:04.607Z,4.60
2019-02-11T01:11:05.038Z,4.60
2019-02-11T01:12:05.000Z,4.60
2019-02-11T01:13:05.079Z,4.60
2019-02-11T01:14:04.453Z,4.50
2019-02-11T01:15:04.730Z,4.50
2019-02-11T01:16:04.670Z,4.50
2019-02-11T01:17:04.481Z,4.50
2019-02-11T01:18:04.823Z,4.50
2019-02-11T01:19:04.560Z,4.50
2019-02-11T01:20:04.711Z,4.50
2019-02-11T01:21:04.938Z,4.50
2019-02-11T01:22:04.610Z,4.40
2019-02-11T01:23:04.995Z,4.40
2019-02-11T01:24:04.424Z,4.40
2019-02-11T01:25:04.667Z,4.40
2019-02-11T01:26:04.561Z,4.40
2019-02-11T01:27:04.222Z,4.40
2019-02-11T01:28:04.496Z,4.40
2019-02-11T01:29:10.379Z,4.40
2019-02-11T01:30:04.725Z,4.30
2019-02-11T01:31:05.139Z,4.30
2019-02-11T01:32:05.049Z,4.30
2019-02-11T01:33:04.391Z,4.30
2019-02-11T01:34:04.325Z,4.30
2019-02-11T01:35:04.504Z,4.30
2019-02-11T01:36:04.545Z,4.30
2019-02-11T01:37:04.224Z,4.20
2019-02-11T01:38:04.481Z,4.20
2019-02-11T01:39:04.903Z,4.20
2019-02-11T01:40:04.588Z,4.20
2019-02-11T01:41:04.679Z,4.20
2019-02-11T01:42:04.848Z,4.20
2019-02-11T01:43:04.934Z,4.20
2019-02-11T01:44:04.339Z,4.10
2019-02-11T01:45:04.458Z,4.10
2019-02-11T01:46:04.771Z,4.10
2019-02-11T01:47:04.745Z,4.10
2019-02-11T01:48:04.945Z,4.10
2019-02-11T01:49:05.208Z,4.10
2019-02-11T01:50:04.282Z,4.10
2019-02-11T01:51:09.560Z,4.10
2019-02-11T01:52:05.033Z,4.00
2019-02-11T01:53:05.031Z,4.00
2019-02-11T01:54:04.556Z,4.00
2019-02-11T01:55:04.829Z,4.00
2019-02-11T01:56:05.053Z,4.00
2019-02-11T01:57:05.020Z,4.00
2019-02-11T01:58:04.643Z,4.00
2019-02-11T01:59:05.081Z,3.90
2019-02-11T02:00:05.238Z,4.00
2019-02-11T02:01:04.750Z,3.90
2019-02-11T02:02:05.079Z,3.90
2019-02-11T02:03:05.046Z,3.90
2019-02-11T02:04:04.874Z,3.90
2019-02-11T02:05:04.941Z,3.90
2019-02-11T02:06:04.226Z,3.90
2019-02-11T02:07:04.359Z,3.90
2019-02-11T02:08:04.670Z,3.90
2019-02-11T02:09:05.011Z,3.80
2019-02-11T02:10:04.817Z,3.80
2019-02-11T02:11:05.076Z,3.80
2019-02-11T02:12:04.321Z,3.80
2019-02-11T02:13:04.387Z,3.80
2019-02-11T02:14:04.655Z,3.80
2019-02-11T02:15:04.714Z,3.80
2019-02-11T02:16:04.651Z,3.80
2019-02-11T02:17:04.454Z,3.80
2019-02-11T02:18:05.102Z,3.80
2019-02-11T02:19:04.292Z,3.80
2019-02-11T02:20:04.307Z,3.80
2019-02-11T02:21:04.637Z,3.80
2019-02-11T02:22:04.950Z,3.80
2019-02-11T02:23:04.944Z,3.80
2019-02-11T02:24:04.432Z,3.70
2019-02-11T02:25:05.218Z,3.70
2019-02-11T02:26:04.273Z,3.70
2019-02-11T02:27:04.347Z,3.70
2019-02-11T02:28:04.443Z,3.70
2019-02-11T02:29:09.559Z,3.70
2019-02-11T02:30:05.180Z,3.70
2019-02-11T02:31:04.545Z,3.70
2019-02-11T02:32:04.709Z,3.70
2019-02-11T02:33:04.377Z,3.70
2019-02-11T02:34:04.436Z,3.70
2019-02-11T02:35:04.784Z,3.70
2019-02-11T02:36:05.140Z,3.60
2019-02-11T02:37:04.657Z,3.70
2019-02-11T02:38:04.414Z,3.70
2019-02-11T02:39:04.482Z,3.70
2019-02-11T02:40:04.688Z,3.60
2019-02-11T02:41:04.933Z,3.60
2019-02-11T02:42:04.559Z,3.60
2019-02-11T02:43:04.639Z,3.60
2019-02-11T02:44:04.257Z,3.60
2019-02-11T02:45:04.622Z,3.60
2019-02-11T02:46:05.159Z,3.60
2019-02-11T02:47:04.567Z,3.60
2019-02-11T02:48:05.078Z,3.60
2019-02-11T02:49:04.465Z,3.60
2019-02-11T02:50:04.782Z,3.60
2019-02-11T02:51:04.683Z,3.60
2019-02-11T02:52:04.167Z,3.60
2019-02-11T02:53:04.263Z,3.60
2019-02-11T02:54:04.603Z,3.60
2019-02-11T02:55:05.193Z,3.60
2019-02-11T02:56:04.304Z,3.60
2019-02-11T02:57:04.696Z,3.60
2019-02-11T02:58:05.135Z,3.50
2019-02-11T02:59:09.313Z,3.60
2019-02-11T03:00:04.675Z,3.60
2019-02-11T03:01:04.987Z,3.50
2019-02-11T03:02:04.616Z,3.50
2019-02-11T03:03:04.811Z,3.50
2019-02-11T03:04:05.134Z,3.50
2019-02-11T03:05:04.482Z,3.50
2019-02-11T03:06:05.019Z,3.50
2019-02-11T03:07:04.454Z,3.50
2019-02-11T03:08:04.433Z,3.50
2019-02-11T03:09:04.567Z,3.40
2019-02-11T03:10:04.676Z,3.40
2019-02-11T03:11:04.823Z,3.40
2019-02-11T03:12:04.951Z,3.40
2019-02-11T03:13:04.953Z,3.40
2019-02-11T03:14:05.978Z,3.40
2019-02-11T03:15:05.189Z,3.40
2019-02-11T03:16:04.175Z,3.30
2019-02-11T03:17:04.913Z,3.30
2019-02-11T03:18:04.951Z,3.30
2019-02-11T03:19:05.260Z,3.30
2019-02-11T03:20:04.329Z,3.30
2019-02-11T03:21:04.624Z,3.30
2019-02-11T03:22:04.555Z,3.30
2019-02-11T03:23:04.893Z,3.30
2019-02-11T03:24:04.913Z,3.30
2019-02-11T03:25:04.192Z,3.20
2019-02-11T03:26:04.337Z,3.20
2019-02-11T03:27:04.433Z,3.20
2019-02-11T03:28:04.607Z,3.20
2019-02-11T03:29:10.149Z,3.20
2019-02-11T03:30:04.502Z,3.20
2019-02-11T03:31:04.794Z,3.20
2019-02-11T03:32:05.107Z,3.10
2019-02-11T03:33:04.491Z,3.10
2019-02-11T03:34:04.784Z,3.10
2019-02-11T03:35:04.882Z,3.10
2019-02-11T03:36:05.022Z,3.10
2019-02-11T03:37:04.556Z,3.10
2019-02-11T03:38:04.669Z,3.10
2019-02-11T03:39:04.661Z,3.10
2019-02-11T03:40:04.868Z,3.10
2019-02-11T03:41:04.465Z,3.10
2019-02-11T03:42:04.875Z,3.10
2019-02-11T03:43:05.050Z,3.10
2019-02-11T03:44:04.796Z,3.10
2019-02-11T03:45:04.790Z,3.10
2019-02-11T03:46:04.865Z,3.10
2019-02-11T03:47:04.929Z,3.10
2019-02-11T03:48:04.242Z,3.10
2019-02-11T03:49:04.872Z,3.10
2019-02-11T03:50:04.502Z,3.10
2019-02-11T03:51:05.146Z,3.10
2019-02-11T03:52:04.296Z,3.10
2019-02-11T03:53:04.954Z,3.10
2019-02-11T03:54:05.221Z,3.10
2019-02-11T03:55:04.573Z,3.10
2019-02-11T03:56:04.831Z,3.10
2019-02-11T03:57:05.048Z,3.10
2019-02-11T03:58:05.036Z,3.10
2019-02-11T03:59:04.620Z,3.10
2019-02-11T04:00:05.084Z,3.10
2019-02-11T04:01:04.251Z,3.10
2019-02-11T04:02:04.710Z,3.10
2019-02-11T04:03:04.148Z,3.10
2019-02-11T04:04:04.391Z,3.10
2019-02-11T04:05:04.650Z,3.10
2019-02-11T04:06:04.839Z,3.10
2019-02-11T04:07:04.944Z,3.10
2019-02-11T04:08:05.006Z,3.10
2019-02-11T04:09:05.096Z,3.10
2019-02-11T04:10:04.631Z,3.10
2019-02-11T04:11:04.829Z,3.10
2019-02-11T04:12:04.241Z,3.10
2019-02-11T04:13:04.453Z,3.10
2019-02-11T04:14:04.946Z,3.10
2019-02-11T04:15:04.467Z,3.10
2019-02-11T04:16:04.998Z,3.10
2019-02-11T04:17:04.264Z,3.10
2019-02-11T04:18:04.696Z,3.10
2019-02-11T04:19:05.213Z,3.10
2019-02-11T04:20:04.309Z,3.10
2019-02-11T04:21:05.080Z,3.10
2019-02-11T04:22:05.147Z,3.10
2019-02-11T04:23:04.306Z,3.10
2019-02-11T04:24:05.061Z,3.10
2019-02-11T04:25:04.857Z,3.10
2019-02-11T04:26:04.876Z,3.10
2019-02-11T04:27:04.654Z,3.10
2019-02-11T04:28:05.180Z,3.10
2019-02-11T04:29:09.476Z,3.10
2019-02-11T04:30:04.856Z,3.00
2019-02-11T04:31:05.101Z,3.00
2019-02-11T04:32:04.351Z,3.10
2019-02-11T04:33:04.430Z,3.10
2019-02-11T04:34:04.588Z,3.00
2019-02-11T04:35:04.692Z,3.00
2019-02-11T04:36:04.629Z,3.10
2019-02-11T04:37:04.965Z,3.10
2019-02-11T04:38:05.033Z,3.10
2019-02-11T04:39:05.212Z,3.10
2019-02-11T04:40:04.198Z,3.10
2019-02-11T04:41:04.320Z,3.10
2019-02-11T04:42:04.828Z,3.10
2019-02-11T04:43:04.963Z,3.10
2019-02-11T04:44:05.199Z,3.10
2019-02-11T04:45:04.245Z,3.10
2019-02-11T04:46:04.562Z,3.10
2019-02-11T04:47:04.507Z,3.00
2019-02-11T04:48:04.855Z,3.00
2019-02-11T04:49:04.279Z,3.00
2019-02-11T04:50:04.493Z,3.00
2019-02-11T04:51:04.808Z,3.00
2019-02-11T04:52:04.714Z,3.00
2019-02-11T04:53:04.765Z,3.00
2019-02-11T04:54:04.985Z,3.00
2019-02-11T04:55:04.547Z,3.00
2019-02-11T04:56:04.848Z,3.00
2019-02-11T04:57:04.530Z,3.00
2019-02-11T04:58:04.689Z,3.00
2019-02-11T04:59:04.816Z,3.00
2019-02-11T05:00:04.904Z,3.00
2019-02-11T05:01:05.183Z,3.00
2019-02-11T05:02:04.359Z,3.00
2019-02-11T05:03:04.807Z,3.10
2019-02-11T05:04:04.353Z,3.00
2019-02-11T05:05:04.383Z,3.00
2019-02-11T05:06:04.350Z,3.00
2019-02-11T05:07:04.767Z,3.00
2019-02-11T05:08:05.123Z,3.00
2019-02-11T05:09:04.348Z,3.00
2019-02-11T05:10:04.373Z,3.10
2019-02-11T05:11:04.547Z,3.00
2019-02-11T05:12:04.734Z,3.00
2019-02-11T05:13:04.942Z,3.00
2019-02-11T05:14:05.102Z,3.00
2019-02-11T05:15:04.164Z,3.00
2019-02-11T05:16:04.433Z,3.00
2019-02-11T05:17:04.485Z,3.00
2019-02-11T05:18:04.702Z,3.00
2019-02-11T05:19:04.698Z,3.10
2019-02-11T05:20:04.924Z,3.00
2019-02-11T05:21:04.489Z,3.10
2019-02-11T05:22:04.754Z,3.10
2019-02-11T05:23:04.801Z,3.00
2019-02-11T05:24:04.500Z,3.10
2019-02-11T05:25:05.220Z,3.00
2019-02-11T05:26:04.802Z,3.10
2019-02-11T05:27:04.825Z,3.10
2019-02-11T05:28:04.469Z,3.10
2019-02-11T05:29:04.731Z,3.10
2019-02-11T05:30:04.241Z,3.10
2019-02-11T05:31:04.386Z,3.10
2019-02-11T05:32:04.471Z,3.10
2019-02-11T05:33:10.256Z,3.10
2019-02-11T05:34:04.705Z,3.10
2019-02-11T05:35:04.790Z,3.10
2019-02-11T05:36:04.245Z,3.10
2019-02-11T05:37:04.394Z,3.10
2019-02-11T05:38:04.509Z,3.10
2019-02-11T05:39:05.086Z,3.10
2019-02-11T05:40:04.388Z,3.10
2019-02-11T05:41:04.795Z,3.10
2019-02-11T05:42:05.071Z,3.10
2019-02-11T05:43:04.229Z,3.10
2019-02-11T05:44:05.864Z,3.10
2019-02-11T05:45:05.084Z,3.10
2019-02-11T05:46:05.126Z,3.10
2019-02-11T05:47:05.112Z,3.10
2019-02-11T05:48:04.300Z,3.10
2019-02-11T05:49:04.453Z,3.10
2019-02-11T05:50:04.677Z,3.10
2019-02-11T05:51:04.764Z,3.10
2019-02-11T05:52:04.195Z,3.10
2019-02-11T05:53:04.549Z,3.10
2019-02-11T05:54:04.943Z,3.20
2019-02-11T05:55:04.966Z,3.10
2019-02-11T05:56:05.028Z,3.20
2019-02-11T05:57:04.172Z,3.10
2019-02-11T05:58:04.338Z,3.10
2019-02-11T05:59:04.570Z,3.10
2019-02-11T06:00:04.640Z,3.20
2019-02-11T06:01:04.751Z,3.20
2019-02-11T06:02:04.915Z,3.20
2019-02-11T06:03:05.112Z,3.20
2019-02-11T06:04:04.500Z,3.20
2019-02-11T06:05:04.537Z,3.20
2019-02-11T06:06:04.750Z,3.20
2019-02-11T06:07:04.922Z,3.20
2019-02-11T06:08:04.977Z,3.20
2019-02-11T06:09:05.122Z,3.20
2019-02-11T06:10:04.689Z,3.20
2019-02-11T06:11:04.915Z,3.20
2019-02-11T06:12:04.250Z,3.20
2019-02-11T06:13:04.666Z,3.20
2019-02-11T06:14:04.266Z,3.20
2019-02-11T06:15:04.892Z,3.20
2019-02-11T06:16:04.713Z,3.20
2019-02-11T06:17:05.101Z,3.20
2019-02-11T06:18:05.085Z,3.20
2019-02-11T06:19:04.565Z,3.20
2019-02-11T06:20:04.710Z,3.20
2019-02-11T06:21:04.918Z,3.20
2019-02-11T06:22:04.178Z,3.20
2019-02-11T06:23:04.376Z,3.20
2019-02-11T06:24:04.568Z,3.20
2019-02-11T06:25:04.537Z,3.20
2019-02-11T06:26:04.831Z,3.20
2019-02-11T06:27:04.858Z,3.20
2019-02-11T06:28:04.439Z,3.20
2019-02-11T06:29:04.723Z,3.20
2019-02-11T06:30:04.293Z,3.20
2019-02-11T06:31:05.047Z,3.20
2019-02-11T06:32:05.089Z,3.20
2019-02-11T06:33:04.636Z,3.20
2019-02-11T06:34:04.879Z,3.20
2019-02-11T06:35:04.950Z,3.20
2019-02-11T06:36:11.716Z,3.20
2019-02-11T06:37:04.428Z,3.20
2019-02-11T06:38:04.667Z,3.20
2019-02-11T06:39:04.918Z,3.20
2019-02-11T06:40:04.442Z,3.30
2019-02-11T06:41:09.700Z,3.30
2019-02-11T06:42:05.060Z,3.20
2019-02-11T06:43:04.367Z,3.30
2019-02-11T06:44:04.994Z,3.20
2019-02-11T06:45:12.712Z,3.20
2019-02-11T06:46:05.096Z,3.20
2019-02-11T06:47:05.088Z,3.30
2019-02-11T06:48:04.445Z,3.30
2019-02-11T06:49:04.589Z,3.30
2019-02-11T06:50:05.150Z,3.30
2019-02-11T06:51:04.571Z,3.30
2019-02-11T06:52:05.069Z,3.30
2019-02-11T06:53:05.061Z,3.30
2019-02-11T06:54:05.161Z,3.30
2019-02-11T06:55:04.238Z,3.30
2019-02-11T06:56:04.556Z,3.30
2019-02-11T06:57:04.753Z,3.30
2019-02-11T06:58:04.755Z,3.30
2019-02-11T06:59:04.350Z,3.30
2019-02-11T07:00:04.533Z,3.30
2019-02-11T07:01:04.570Z,3.30
2019-02-11T07:02:04.867Z,3.30
2019-02-11T07:03:04.464Z,3.30
2019-02-11T07:04:04.519Z,3.30
2019-02-11T07:05:04.646Z,3.30
2019-02-11T07:06:04.932Z,3.30
2019-02-11T07:07:05.055Z,3.30
2019-02-11T07:08:05.163Z,3.30
2019-02-11T07:09:04.547Z,3.30
2019-02-11T07:10:04.853Z,3.30
2019-02-11T07:11:04.898Z,3.30
2019-02-11T07:12:05.199Z,3.30
2019-02-11T07:13:04.433Z,3.30
2019-02-11T07:14:04.733Z,3.40
2019-02-11T07:15:05.137Z,3.40
2019-02-11T07:16:04.788Z,3.40
2019-02-11T07:17:04.280Z,3.40
2019-02-11T07:18:04.358Z,3.40
2019-02-11T07:19:04.603Z,3.40
2019-02-11T07:20:04.948Z,3.40
2019-02-11T07:21:05.006Z,3.40
2019-02-11T07:22:05.154Z,3.40
2019-02-11T07:23:04.808Z,3.50
2019-02-11T07:24:05.185Z,3.50
2019-02-11T07:25:04.511Z,3.50
2019-02-11T07:26:04.989Z,3.50
2019-02-11T07:27:04.284Z,3.50
2019-02-11T07:28:04.562Z,3.50
2019-02-11T07:29:10.244Z,3.50
2019-02-11T07:30:04.733Z,3.50
2019-02-11T07:31:04.871Z,3.50
2019-02-11T07:32:04.331Z,3.50
2019-02-11T07:33:04.505Z,3.50
2019-02-11T07:34:04.593Z,3.50
2019-02-11T07:35:04.905Z,3.50
2019-02-11T07:36:04.901Z,3.50
2019-02-11T07:37:04.572Z,3.50
2019-02-11T07:38:04.855Z,3.60
2019-02-11T07:39:04.931Z,3.60
2019-02-11T07:40:04.499Z,3.60
2019-02-11T07:41:04.797Z,3.60
2019-02-11T07:42:04.953Z,3.60
2019-02-11T07:43:05.056Z,3.60
2019-02-11T07:44:04.657Z,3.60
2019-02-11T07:45:04.960Z,3.60
2019-02-11T07:46:04.316Z,3.60
2019-02-11T07:47:04.462Z,3.60
2019-02-11T07:48:04.744Z,3.60
2019-02-11T07:49:04.770Z,3.60
2019-02-11T07:50:04.872Z,3.60
2019-02-11T07:51:04.435Z,3.60
2019-02-11T07:52:04.727Z,3.60
2019-02-11T07:53:04.213Z,3.60
2019-02-11T07:54:04.365Z,3.60
2019-02-11T07:55:05.055Z,3.60
2019-02-11T07:56:04.503Z,3.60
2019-02-11T07:57:04.574Z,3.60
2019-02-11T07:58:04.916Z,3.60
2019-02-11T07:59:04.590Z,3.60
2019-02-11T08:00:04.838Z,3.60
2019-02-11T08:01:04.891Z,3.70
2019-02-11T08:02:05.135Z,3.70
2019-02-11T08:03:04.853Z,3.70
2019-02-11T08:04:05.063Z,3.70
2019-02-11T08:05:05.064Z,3.70
2019-02-11T08:06:04.388Z,3.70
2019-02-11T08:07:05.154Z,3.70
2019-02-11T08:08:04.320Z,3.70
2019-02-11T08:09:04.840Z,3.70
2019-02-11T08:10:04.774Z,3.70
2019-02-11T08:11:04.340Z,3.70
2019-02-11T08:12:04.587Z,3.70
2019-02-11T08:13:04.585Z,3.70
2019-02-11T08:14:05.070Z,3.70
2019-02-11T08:15:04.621Z,3.70
2019-02-11T08:16:04.795Z,3.70
2019-02-11T08:17:05.326Z,3.70
2019-02-11T08:18:04.695Z,3.80
2019-02-11T08:19:05.125Z,3.80
2019-02-11T08:20:04.552Z,3.80
2019-02-11T08:21:04.701Z,3.80
2019-02-11T08:22:05.127Z,3.80
2019-02-11T08:23:11.216Z,3.80
2019-02-11T08:24:04.238Z,3.80
2019-02-11T08:25:04.802Z,3.80
2019-02-11T08:26:06.112Z,3.80
2019-02-11T08:27:04.905Z,3.80
2019-02-11T08:28:04.646Z,3.80
2019-02-11T08:29:10.049Z,3.80
2019-02-11T08:30:04.498Z,3.80
2019-02-11T08:31:05.021Z,3.80
2019-02-11T08:32:04.655Z,3.80
2019-02-11T08:33:05.140Z,3.80
2019-02-11T08:34:04.755Z,3.80
2019-02-11T08:35:05.161Z,3.80
2019-02-11T08:36:04.418Z,3.90
2019-02-11T08:37:04.956Z,3.90
2019-02-11T08:38:05.014Z,3.90
2019-02-11T08:39:04.427Z,3.90
2019-02-11T08:40:05.194Z,3.90
2019-02-11T08:41:04.336Z,4.00
2019-02-11T08:42:04.574Z,4.00
2019-02-11T08:43:04.613Z,4.00
2019-02-11T08:44:04.879Z,4.00
2019-02-11T08:45:04.674Z,4.00
2019-02-11T08:46:04.768Z,4.10
2019-02-11T08:47:05.019Z,4.10
2019-02-11T08:48:05.106Z,4.10
2019-02-11T08:49:04.762Z,4.10
2019-02-11T08:50:04.325Z,4.10
2019-02-11T08:51:04.776Z,4.10
2019-02-11T08:52:05.019Z,4.10
2019-02-11T08:53:04.988Z,4.20
2019-02-11T08:54:04.450Z,4.20
2019-02-11T08:55:04.329Z,4.20
2019-02-11T08:56:04.640Z,4.20
2019-02-11T08:57:05.011Z,4.30
2019-02-11T08:58:04.525Z,4.30
2019-02-11T08:59:04.563Z,4.30
2019-02-11T09:00:04.791Z,4.40
2019-02-11T09:01:04.866Z,4.40
2019-02-11T09:02:04.414Z,4.40
2019-02-11T09:03:04.867Z,4.40
2019-02-11T09:04:04.212Z,4.40
2019-02-11T09:05:04.630Z,4.40
2019-02-11T09:06:04.609Z,4.50
2019-02-11T09:07:04.246Z,4.40
2019-02-11T09:08:04.357Z,4.50
2019-02-11T09:09:04.832Z,4.50
2019-02-11T09:10:04.911Z,4.50
2019-02-11T09:11:05.143Z,4.50
2019-02-11T09:12:04.511Z,4.50
2019-02-11T09:13:04.576Z,4.50
2019-02-11T09:14:05.183Z,4.60
2019-02-11T09:15:04.750Z,4.60
2019-02-11T09:16:04.879Z,4.60
2019-02-11T09:17:10.173Z,4.60
2019-02-11T09:18:04.720Z,4.60
2019-02-11T09:19:04.437Z,4.60
2019-02-11T09:20:05.031Z,4.60
2019-02-11T09:21:05.017Z,4.60
2019-02-11T09:22:07.415Z,4.60
2019-02-11T09:23:04.319Z,4.70
2019-02-11T09:24:04.634Z,4.60
2019-02-11T09:25:04.590Z,4.60
2019-02-11T09:26:04.342Z,4.60
2019-02-11T09:27:04.399Z,4.60
2019-02-11T09:28:04.813Z,4.60
2019-02-11T09:29:10.003Z,4.60
2019-02-11T09:30:04.404Z,4.60
2019-02-11T09:31:04.730Z,4.60
2019-02-11T09:32:04.640Z,4.60
2019-02-11T09:33:04.379Z,4.60
2019-02-11T09:34:04.878Z,4.50
2019-02-11T09:35:04.943Z,4.50
2019-02-11T09:36:04.288Z,4.50
2019-02-11T09:37:04.784Z,4.50
2019-02-11T09:38:04.358Z,4.50
2019-02-11T09:39:04.964Z,4.50
2019-02-11T09:40:05.065Z,4.50
2019-02-11T09:41:05.177Z,4.50
2019-02-11T09:42:04.303Z,4.50
2019-02-11T09:43:04.887Z,4.50
2019-02-11T09:44:04.951Z,4.50
2019-02-11T09:45:04.622Z,4.50
2019-02-11T09:46:04.836Z,4.50
2019-02-11T09:47:04.819Z,4.50
2019-02-11T09:48:05.001Z,4.50
2019-02-11T09:49:05.178Z,4.50
2019-02-11T09:50:04.814Z,4.50
2019-02-11T09:51:05.155Z,4.50
2019-02-11T09:52:04.182Z,4.50
2019-02-11T09:53:04.458Z,4.50
2019-02-11T09:54:04.865Z,4.50
2019-02-11T09:55:04.436Z,4.50
2019-02-11T09:56:04.626Z,4.50
2019-02-11T09:57:04.952Z,4.50
2019-02-11T09:58:05.109Z,4.60
2019-02-11T09:59:04.509Z,4.60
2019-02-11T10:00:04.597Z,4.60
2019-02-11T10:01:05.171Z,4.60
2019-02-11T10:02:04.394Z,4.60
2019-02-11T10:03:05.054Z,4.70
2019-02-11T10:04:05.040Z,4.70
2019-02-11T10:05:04.832Z,4.80
2019-02-11T10:06:09.560Z,4.80
2019-02-11T10:07:05.070Z,4.80
2019-02-11T10:08:04.557Z,4.90
2019-02-11T10:09:05.012Z,4.90
2019-02-11T10:10:05.251Z,5.00
2019-02-11T10:11:04.280Z,5.00
2019-02-11T10:12:04.437Z,5.10
2019-02-11T10:13:04.411Z,5.10
2019-02-11T10:14:04.537Z,5.10
2019-02-11T10:15:04.739Z,5.20
2019-02-11T10:16:12.235Z,5.20
2019-02-11T10:17:04.287Z,5.20
2019-02-11T10:18:04.533Z,5.20
2019-02-11T10:19:04.465Z,5.20
2019-02-11T10:20:04.646Z,5.20
2019-02-11T10:21:04.658Z,5.20
2019-02-11T10:22:04.989Z,5.20
2019-02-11T10:23:04.587Z,5.20
2019-02-11T10:24:05.012Z,5.10
2019-02-11T10:25:04.575Z,5.10
2019-02-11T10:26:04.890Z,5.10
2019-02-11T10:27:05.174Z,5.10
2019-02-11T10:28:04.686Z,5.10
2019-02-11T10:29:04.867Z,5.10
2019-02-11T10:30:04.922Z,5.00
2019-02-11T10:31:05.136Z,5.00
2019-02-11T10:32:04.516Z,5.00
2019-02-11T10:33:04.622Z,5.00
2019-02-11T10:34:05.022Z,5.00
2019-02-11T10:35:04.417Z,5.00
2019-02-11T10:36:04.897Z,5.00
2019-02-11T10:37:04.569Z,4.90
2019-02-11T10:38:04.583Z,4.90
2019-02-11T10:39:04.937Z,4.90
2019-02-11T10:40:10.091Z,4.90
2019-02-11T10:41:05.171Z,4.90
2019-02-11T10:42:04.208Z,4.90
2019-02-11T10:43:04.761Z,4.90
2019-02-11T10:44:04.891Z,4.90
2019-02-11T10:45:05.182Z,4.90
2019-02-11T10:46:04.569Z,4.90
2019-02-11T10:47:04.604Z,4.90
2019-02-11T10:48:04.821Z,4.90
2019-02-11T10:49:05.197Z,4.80
2019-02-11T10:50:05.077Z,4.80
2019-02-11T10:51:04.346Z,4.90
2019-02-11T10:52:04.537Z,4.80
2019-02-11T10:53:04.270Z,4.80
2019-02-11T10:54:04.582Z,4.80
2019-02-11T10:55:05.174Z,4.80
2019-02-11T10:56:05.216Z,4.90
2019-02-11T10:57:04.795Z,4.80
2019-02-11T10:58:04.278Z,4.80
2019-02-11T10:59:04.439Z,4.80
2019-02-11T11:00:04.634Z,4.80
2019-02-11T11:01:04.957Z,4.90
2019-02-11T11:02:05.116Z,4.90
2019-02-11T11:03:04.234Z,4.90
2019-02-11T11:04:04.955Z,4.80
2019-02-11T11:05:05.079Z,4.90
2019-02-11T11:06:05.123Z,4.90
2019-02-11T11:07:04.636Z,4.90
2019-02-11T11:08:04.798Z,4.90
2019-02-11T11:09:05.077Z,4.90
2019-02-11T11:10:04.246Z,4.90
2019-02-11T11:11:04.362Z,4.90
2019-02-11T11:12:04.430Z,4.90
2019-02-11T11:13:04.851Z,4.90
2019-02-11T11:14:04.394Z,4.90
2019-02-11T11:15:04.686Z,4.90
2019-02-11T11:16:05.168Z,4.90
2019-02-11T11:17:04.442Z,4.90
2019-02-11T11:18:04.821Z,4.90
2019-02-11T11:19:04.335Z,4.90
2019-02-11T11:20:04.527Z,4.90
2019-02-11T11:21:04.778Z,4.90
2019-02-11T11:22:05.242Z,4.90
2019-02-11T11:23:04.326Z,4.90
2019-02-11T11:24:04.520Z,4.90
2019-02-11T11:25:04.930Z,4.90
2019-02-11T11:26:04.247Z,4.90
2019-02-11T11:27:04.881Z,4.90
2019-02-11T11:28:04.887Z,5.00
2019-02-11T11:29:10.108Z,5.00
2019-02-11T11:30:04.512Z,5.00
2019-02-11T11:31:04.768Z,5.00
2019-02-11T11:32:04.417Z,5.00
2019-02-11T11:33:04.457Z,5.00
2019-02-11T11:34:04.650Z,5.00
2019-02-11T11:35:04.768Z,5.00
2019-02-11T11:36:04.903Z,5.00
2019-02-11T11:37:05.028Z,5.00
2019-02-11T11:38:04.238Z,5.00
2019-02-11T11:39:04.794Z,5.00
2019-02-11T11:40:04.818Z,5.00
2019-02-11T11:41:04.393Z,5.00
2019-02-11T11:42:04.745Z,5.00
2019-02-11T11:43:04.338Z,5.00
2019-02-11T11:44:04.468Z,4.90
2019-02-11T11:45:05.021Z,4.90
2019-02-11T11:46:04.257Z,5.00
2019-02-11T11:47:04.403Z,5.00
2019-02-11T11:48:04.867Z,5.00
2019-02-11T11:49:05.064Z,5.00
2019-02-11T11:50:05.173Z,5.00
2019-02-11T11:51:04.337Z,5.00
2019-02-11T11:52:05.051Z,5.00
2019-02-11T11:53:05.080Z,5.00
2019-02-11T11:54:05.089Z,5.00
2019-02-11T11:55:04.266Z,5.00
2019-02-11T11:56:04.383Z,5.00
2019-02-11T11:57:04.727Z,5.00
2019-02-11T11:58:04.303Z,5.00
2019-02-11T11:59:05.099Z,5.00
2019-02-11T12:00:04.252Z,5.00
2019-02-11T12:01:04.955Z,5.00
2019-02-11T12:02:04.967Z,5.00
2019-02-11T12:03:05.620Z,5.10
2019-02-11T12:04:06.499Z,5.00
2019-02-11T12:05:04.498Z,5.10
2019-02-11T12:06:04.914Z,5.10
2019-02-11T12:07:04.984Z,5.10
2019-02-11T12:08:04.809Z,5.10
2019-02-11T12:09:04.984Z,5.10
2019-02-11T12:10:05.145Z,5.10
2019-02-11T12:11:04.915Z,5.10
2019-02-11T12:12:05.106Z,5.10
2019-02-11T12:13:21.179Z,5.10
2019-02-11T12:14:04.946Z,5.10
2019-02-11T12:15:05.210Z,5.10
2019-02-11T12:16:04.796Z,5.10
2019-02-11T12:17:04.845Z,5.10
2019-02-11T12:18:04.597Z,5.10
2019-02-11T12:19:04.853Z,5.10
2019-02-11T12:20:04.195Z,5.10
2019-02-11T12:21:05.093Z,5.10
2019-02-11T12:22:05.210Z,5.10
2019-02-11T12:23:04.651Z,5.10
2019-02-11T12:24:04.169Z,5.10
2019-02-11T12:25:04.441Z,5.10
2019-02-11T12:26:04.659Z,5.10
2019-02-11T12:27:04.788Z,5.10
2019-02-11T12:28:05.012Z,5.10
2019-02-11T12:29:09.311Z,5.10
2019-02-11T12:30:04.700Z,5.10
2019-02-11T12:31:05.049Z,5.10
2019-02-11T12:32:04.537Z,5.10
2019-02-11T12:33:05.048Z,5.10
2019-02-11T12:34:04.394Z,5.10
2019-02-11T12:35:04.614Z,5.10
2019-02-11T12:36:04.189Z,5.10
2019-02-11T12:37:08.851Z,5.10
2019-02-11T12:38:04.305Z,5.10
2019-02-11T12:39:05.024Z,5.10
2019-02-11T12:40:04.400Z,5.10
2019-02-11T12:41:04.957Z,5.10
2019-02-11T12:42:05.241Z,5.00
2019-02-11T12:43:04.735Z,5.00
2019-02-11T12:44:04.392Z,5.00
2019-02-11T12:45:04.846Z,5.00
2019-02-11T12:46:05.028Z,5.00
2019-02-11T12:47:13.636Z,5.00
2019-02-11T12:48:04.659Z,5.00
2019-02-11T12:49:04.237Z,5.00
2019-02-11T12:50:04.829Z,5.00
2019-02-11T12:51:05.143Z,5.00
2019-02-11T12:52:04.480Z,5.00
2019-02-11T12:53:04.922Z,5.00
2019-02-11T12:54:04.419Z,5.00
2019-02-11T12:55:07.870Z,4.90
2019-02-11T12:56:04.996Z,5.00
2019-02-11T12:57:04.339Z,5.00
2019-02-11T12:58:04.816Z,5.00
2019-02-11T12:59:05.154Z,5.00
2019-02-11T13:00:04.625Z,4.90
2019-02-11T13:01:04.841Z,5.00
2019-02-11T13:02:05.015Z,4.90
2019-02-11T13:03:05.125Z,5.00
2019-02-11T13:04:04.910Z,4.90
2019-02-11T13:05:05.040Z,4.90
2019-02-11T13:06:04.668Z,5.00
2019-02-11T13:07:05.121Z,5.00
2019-02-11T13:08:04.393Z,5.00
2019-02-11T13:09:04.661Z,5.00
2019-02-11T13:10:05.141Z,4.90
2019-02-11T13:11:04.585Z,4.90
2019-02-11T13:12:05.202Z,5.00
2019-02-11T13:13:06.525Z,5.00
2019-02-11T13:14:05.208Z,5.00
2019-02-11T13:15:04.383Z,5.00
2019-02-11T13:16:04.633Z,5.00
2019-02-11T13:17:14.622Z,5.00
2019-02-11T13:18:05.138Z,5.00